Time;durP1;ratioP1;P1;durP2;ratioP2;P2;SDS_P1;SDS_P2;PMS_P1;PMS_P2;Temp;Humidity;BMP_temperature;BMP_pressure;BME280_temperature;BME280_humidity;BME280_pressure;Samples;Min_cycle;Max_cycle;Signal;HPM_P1;HPM_P2
2021/08/22 00:01:19;;;;;;;;;;;19.70;87.50;;;;;;5015181;28;19925;-74
2021/08/22 00:03:44;;;;;;;;;;;19.70;87.30;;;;;;5014192;28;19929;-74
2021/08/22 00:06:10;;;;;;;;;;;19.70;87.30;;;;;;5016942;28;20308;-74
2021/08/22 00:08:39;;;;;;;;;;;19.70;87.10;;;;;;5019480;28;19940;-74
2021/08/22 00:11:04;;;;;;;;;;;19.80;87.10;;;;;;5015884;28;19921;-75
2021/08/22 00:13:29;;;;;;;;;;;19.80;87.00;;;;;;5019390;28;19976;-75
2021/08/22 00:15:55;;;;;;;;;;;19.80;86.80;;;;;;5016830;28;19967;-74
2021/08/22 00:18:20;;;;;;;;;;;19.70;86.70;;;;;;5016006;28;19959;-74
2021/08/22 00:20:46;;;;;;;;;;;19.70;86.70;;;;;;5017765;28;20422;-74
2021/08/22 00:23:12;;;;;;;;;;;19.70;86.60;;;;;;5017247;28;20377;-74
2021/08/22 00:25:37;;;;;;;;;;;19.70;86.70;;;;;;5018455;28;20003;-75
2021/08/22 00:28:03;;;;;;;;;;;19.70;86.60;;;;;;5018011;28;19921;-74
2021/08/22 00:30:28;;;;;;;;;;;19.70;86.50;;;;;;5017349;28;19939;-75
2021/08/22 00:32:53;;;;;;;;;;;19.60;86.60;;;;;;5016395;28;20000;-74
2021/08/22 00:35:19;;;;;;;;;;;19.70;86.60;;;;;;5016869;28;19994;-74
2021/08/22 00:37:44;;;;;;;;;;;19.70;86.40;;;;;;5022812;28;20360;-75
2021/08/22 00:40:10;;;;;;;;;;;19.70;86.40;;;;;;5019769;28;19917;-75
2021/08/22 00:42:36;;;;;;;;;;;19.70;86.40;;;;;;5022209;28;19917;-74
2021/08/22 00:45:05;;;;;;;;;;;19.70;86.30;;;;;;5020908;28;20365;-74
2021/08/22 00:47:30;;;;;;;;;;;19.60;86.10;;;;;;5004688;28;20285;-74
2021/08/22 00:49:56;;;;;;;;;;;19.70;86.20;;;;;;5022609;28;19913;-74
2021/08/22 00:52:22;;;;;;;;;;;19.70;86.20;;;;;;5003486;28;19917;-74
2021/08/22 00:54:48;;;;;;;;;;;19.60;86.20;;;;;;4988399;28;19917;-74
2021/08/22 00:57:14;;;;;;;;;;;19.60;86.30;;;;;;5019858;28;19913;-74
2021/08/22 00:59:43;;;;;;;;;;;19.50;86.30;;;;;;5002509;28;19917;-74
2021/08/22 01:02:43;;;;;;;;;;;19.50;86.40;;;;;;5021134;28;19918;-74
2021/08/22 01:05:29;;;;;;;;;;;19.50;86.50;;;;;;4997325;28;19917;-74
2021/08/22 01:08:02;;;;;;;;;;;19.50;86.40;;;;;;5004815;28;19913;-74
2021/08/22 01:10:28;;;;;;;;;;;19.50;86.60;;;;;;5021748;28;19976;-74
2021/08/22 01:13:05;;;;;;;;;;;19.40;86.50;;;;;;5018491;28;19983;-74
2021/08/22 01:15:32;;;;;;;;;;;19.40;86.60;;;;;;5019730;28;20050;-74
2021/08/22 01:17:59;;;;;;;;;;;19.30;86.60;;;;;;4988357;28;20269;-74
2021/08/22 01:20:43;;;;;;;;;;;19.30;86.90;;;;;;5020113;28;20016;-74
2021/08/22 01:23:09;;;;;;;;;;;19.20;87.00;;;;;;5021868;28;19956;-74
2021/08/22 01:25:36;;;;;;;;;;;19.10;87.10;;;;;;4988074;28;19917;-74
2021/08/22 01:28:02;;;;;;;;;;;19.20;87.30;;;;;;5021242;28;19921;-74
2021/08/22 01:30:27;;;;;;;;;;;19.10;87.30;;;;;;5018474;28;20629;-74
2021/08/22 01:32:53;;;;;;;;;;;19.10;87.40;;;;;;5020887;28;19922;-74
2021/08/22 01:35:22;;;;;;;;;;;19.10;87.60;;;;;;5020829;28;19913;-74
2021/08/22 01:37:49;;;;;;;;;;;19.00;87.60;;;;;;5018733;28;20380;-74
2021/08/22 01:40:19;;;;;;;;;;;19.00;87.60;;;;;;5021770;28;19992;-74
2021/08/22 01:42:45;;;;;;;;;;;19.00;87.60;;;;;;5021081;28;19949;-74
2021/08/22 01:45:14;;;;;;;;;;;18.90;87.90;;;;;;5016831;28;19924;-74
2021/08/22 01:47:40;;;;;;;;;;;18.90;88.20;;;;;;5019687;28;19935;-75
2021/08/22 01:50:06;;;;;;;;;;;18.90;88.20;;;;;;5020472;28;19925;-75
2021/08/22 01:52:32;;;;;;;;;;;18.90;88.10;;;;;;5020537;28;19917;-75
2021/08/22 01:54:58;;;;;;;;;;;18.80;88.40;;;;;;5000880;28;19920;-75
2021/08/22 01:57:23;;;;;;;;;;;18.80;88.80;;;;;;5020165;28;19918;-75
2021/08/22 01:59:48;;;;;;;;;;;18.80;88.70;;;;;;5017230;28;19971;-75
2021/08/22 02:02:14;;;;;;;;;;;18.80;88.60;;;;;;5018730;28;20368;-75
2021/08/22 02:04:41;;;;;;;;;;;18.80;88.60;;;;;;5018608;28;20403;-75
2021/08/22 02:07:12;;;;;;;;;;;18.80;88.60;;;;;;5020573;28;19993;-76
2021/08/22 02:09:43;;;;;;;;;;;18.70;89.00;;;;;;5019867;28;19914;-76
2021/08/22 02:12:13;;;;;;;;;;;18.60;89.00;;;;;;5021043;28;19910;-76
2021/08/22 02:14:41;;;;;;;;;;;18.70;89.40;;;;;;5018621;28;19917;-76
2021/08/22 02:17:07;;;;;;;;;;;18.70;89.20;;;;;;5018584;28;20017;-76
2021/08/22 02:19:33;;;;;;;;;;;18.60;89.40;;;;;;5020175;28;20335;-76
2021/08/22 02:21:58;;;;;;;;;;;18.60;89.60;;;;;;5019798;28;19928;-75
2021/08/22 02:24:24;;;;;;;;;;;18.60;89.40;;;;;;5019604;28;19928;-76
2021/08/22 02:26:50;;;;;;;;;;;18.50;89.60;;;;;;5020705;28;19920;-75
2021/08/22 02:29:16;;;;;;;;;;;18.50;89.70;;;;;;5019017;28;19913;-75
2021/08/22 02:31:41;;;;;;;;;;;18.60;90.00;;;;;;5019353;28;19914;-75
2021/08/22 02:34:06;;;;;;;;;;;18.60;89.70;;;;;;5015038;28;19921;-76
2021/08/22 02:36:32;;;;;;;;;;;18.50;89.60;;;;;;5001457;28;19987;-77
2021/08/22 02:38:57;;;;;;;;;;;18.50;89.90;;;;;;5000882;28;19917;-76
2021/08/22 02:41:23;;;;;;;;;;;18.50;89.80;;;;;;5019193;28;19932;-76
2021/08/22 02:43:49;;;;;;;;;;;18.40;90.00;;;;;;5017011;28;20304;-76
2021/08/22 02:46:14;;;;;;;;;;;18.40;90.10;;;;;;5019251;28;19923;-76
2021/08/22 02:48:40;;;;;;;;;;;18.30;90.00;;;;;;5019329;28;19916;-76
2021/08/22 02:51:05;;;;;;;;;;;18.20;90.10;;;;;;5016387;28;20033;-76
2021/08/22 02:53:31;;;;;;;;;;;18.10;90.20;;;;;;5019770;28;19923;-76
2021/08/22 02:55:56;;;;;;;;;;;18.10;90.40;;;;;;5015136;28;20296;-75
2021/08/22 02:58:22;;;;;;;;;;;18.00;90.30;;;;;;5020148;28;19915;-75
2021/08/22 03:00:47;;;;;;;;;;;17.90;90.30;;;;;;5016398;28;19944;-75
2021/08/22 03:03:13;;;;;;;;;;;17.90;90.60;;;;;;5019242;28;19917;-74
2021/08/22 03:05:38;;;;;;;;;;;17.80;90.60;;;;;;5017274;28;19983;-75
2021/08/22 03:08:04;;;;;;;;;;;17.80;90.70;;;;;;5018156;28;19963;-74
2021/08/22 03:10:29;;;;;;;;;;;17.70;90.90;;;;;;5018136;28;19920;-74
2021/08/22 03:12:55;;;;;;;;;;;17.70;91.00;;;;;;5020209;28;20318;-74
2021/08/22 03:15:20;;;;;;;;;;;17.70;91.20;;;;;;5017727;28;19917;-76
2021/08/22 03:17:45;;;;;;;;;;;17.60;91.10;;;;;;5018427;28;19917;-75
2021/08/22 03:20:11;;;;;;;;;;;17.60;91.00;;;;;;5020162;28;20020;-75
2021/08/22 03:22:39;;;;;;;;;;;17.60;91.10;;;;;;5017802;28;19940;-75
2021/08/22 03:25:05;;;;;;;;;;;17.50;91.20;;;;;;5015121;28;19917;-75
2021/08/22 03:27:31;;;;;;;;;;;17.50;91.20;;;;;;5019096;28;19935;-75
2021/08/22 03:29:56;;;;;;;;;;;17.50;91.30;;;;;;5018174;28;19989;-76
2021/08/22 03:32:21;;;;;;;;;;;17.40;91.30;;;;;;5018306;28;20386;-75
2021/08/22 03:34:47;;;;;;;;;;;17.40;91.40;;;;;;5014721;28;19954;-75
2021/08/22 03:37:12;;;;;;;;;;;17.30;91.60;;;;;;5019520;28;19917;-75
2021/08/22 03:39:38;;;;;;;;;;;17.30;91.60;;;;;;5018978;28;19939;-75
2021/08/22 03:42:03;;;;;;;;;;;17.30;91.70;;;;;;5017236;28;20400;-75
2021/08/22 03:44:29;;;;;;;;;;;17.40;91.70;;;;;;5016400;28;20376;-75
2021/08/22 03:46:54;;;;;;;;;;;17.30;91.70;;;;;;5018996;28;19914;-75
2021/08/22 03:49:20;;;;;;;;;;;17.40;91.70;;;;;;5017570;28;19910;-75
2021/08/22 03:51:46;;;;;;;;;;;17.30;91.70;;;;;;5017858;28;20419;-75
2021/08/22 03:54:11;;;;;;;;;;;17.20;91.80;;;;;;5015758;28;19913;-75
2021/08/22 03:56:37;;;;;;;;;;;17.20;91.90;;;;;;5018329;28;19913;-75
2021/08/22 03:59:07;;;;;;;;;;;17.20;92.00;;;;;;5018082;28;19967;-75
2021/08/22 04:01:33;;;;;;;;;;;17.10;92.00;;;;;;5018662;28;20296;-75
2021/08/22 04:03:58;;;;;;;;;;;17.10;92.10;;;;;;5017114;28;19996;-75
2021/08/22 04:06:25;;;;;;;;;;;17.10;92.20;;;;;;5017452;28;20009;-75
2021/08/22 04:08:51;;;;;;;;;;;17.10;92.20;;;;;;5018628;28;19909;-74
2021/08/22 04:11:16;;;;;;;;;;;17.00;92.20;;;;;;5022019;28;19914;-75
2021/08/22 04:13:43;;;;;;;;;;;17.10;92.30;;;;;;5019016;28;19917;-74
2021/08/22 04:16:08;;;;;;;;;;;17.00;92.30;;;;;;5021438;28;19956;-74
2021/08/22 04:18:33;;;;;;;;;;;17.00;92.30;;;;;;5021455;28;19961;-74
2021/08/22 04:20:59;;;;;;;;;;;17.10;92.30;;;;;;5003756;28;20292;-74
2021/08/22 04:23:25;;;;;;;;;;;17.00;92.20;;;;;;5022533;28;19940;-75
2021/08/22 04:25:52;;;;;;;;;;;17.00;92.40;;;;;;5021992;28;19913;-75
2021/08/22 04:28:17;;;;;;;;;;;17.00;92.30;;;;;;5003387;28;19964;-74
2021/08/22 04:30:43;;;;;;;;;;;17.00;92.30;;;;;;5022498;28;19956;-74
2021/08/22 04:33:08;;;;;;;;;;;17.00;92.50;;;;;;5021988;28;19913;-74
2021/08/22 04:35:34;;;;;;;;;;;17.00;92.60;;;;;;5021151;28;19913;-75
2021/08/22 04:37:59;;;;;;;;;;;17.00;92.60;;;;;;5020121;28;19917;-75
2021/08/22 04:40:24;;;;;;;;;;;17.00;92.80;;;;;;5022896;28;19920;-74
2021/08/22 04:42:50;;;;;;;;;;;16.90;92.70;;;;;;5020651;28;19917;-75
2021/08/22 04:45:16;;;;;;;;;;;16.90;92.80;;;;;;5020547;28;20296;-75
2021/08/22 04:47:41;;;;;;;;;;;16.90;92.70;;;;;;5022929;28;19910;-74
2021/08/22 04:50:07;;;;;;;;;;;16.90;92.70;;;;;;5022577;28;19963;-74
2021/08/22 04:52:33;;;;;;;;;;;16.90;92.60;;;;;;5020543;28;19955;-74
2021/08/22 04:55:02;;;;;;;;;;;16.90;92.70;;;;;;5017940;28;20314;-74
2021/08/22 04:57:28;;;;;;;;;;;17.00;92.90;;;;;;5018964;28;19917;-75
2021/08/22 04:59:53;;;;;;;;;;;17.00;92.80;;;;;;5022334;28;19909;-75
2021/08/22 05:02:19;;;;;;;;;;;17.00;92.70;;;;;;5021894;28;19917;-75
2021/08/22 05:04:44;;;;;;;;;;;17.10;92.80;;;;;;5003307;28;20383;-75
2021/08/22 05:07:09;;;;;;;;;;;17.10;93.00;;;;;;5003193;28;19917;-75
2021/08/22 05:09:35;;;;;;;;;;;17.20;92.90;;;;;;5020176;28;19948;-75
2021/08/22 05:12:00;;;;;;;;;;;17.40;93.50;;;;;;5002154;28;20304;-75
2021/08/22 05:14:34;;;;;;;;;;;17.40;93.20;;;;;;5019785;28;19924;-75
2021/08/22 05:17:00;;;;;;;;;;;17.40;93.50;;;;;;5021585;28;20384;-75
2021/08/22 05:19:26;;;;;;;;;;;17.40;93.70;;;;;;5020213;28;19917;-72
2021/08/22 05:21:51;;;;;;;;;;;17.40;94.20;;;;;;5002159;28;19940;-72
2021/08/22 05:24:17;;;;;;;;;;;17.30;94.40;;;;;;4999319;28;19917;-72
2021/08/22 05:26:42;;;;;;;;;;;17.20;94.70;;;;;;5021028;28;19972;-72
2021/08/22 05:29:08;;;;;;;;;;;17.10;94.90;;;;;;5020894;28;20269;-72
2021/08/22 05:31:33;;;;;;;;;;;17.00;95.20;;;;;;5017767;28;20435;-72
2021/08/22 05:33:58;;;;;;;;;;;17.00;95.50;;;;;;5018420;28;19955;-72
2021/08/22 05:36:24;;;;;;;;;;;17.00;95.60;;;;;;5021460;28;19996;-72
2021/08/22 05:38:50;;;;;;;;;;;17.00;95.80;;;;;;5020018;28;19919;-72
2021/08/22 05:41:16;;;;;;;;;;;17.00;96.20;;;;;;5020925;28;19913;-72
2021/08/22 05:43:41;;;;;;;;;;;16.90;96.00;;;;;;5021045;28;20103;-71
2021/08/22 05:46:08;;;;;;;;;;;16.90;96.40;;;;;;5018293;28;19913;-72
2021/08/22 05:48:33;;;;;;;;;;;16.90;96.90;;;;;;5019860;28;19921;-72
2021/08/22 05:51:02;;;;;;;;;;;16.80;97.20;;;;;;5045352;23;20630;-71
2021/08/22 05:53:30;;;;;;;;;;;16.70;97.20;;;;;;5018741;28;20008;-72
2021/08/22 05:55:56;;;;;;;;;;;16.60;96.60;;;;;;4996377;28;19922;-72
2021/08/22 05:58:22;;;;;;;;;;;16.50;96.80;;;;;;5019877;28;19923;-72
2021/08/22 06:00:47;;;;;;;;;;;16.40;97.00;;;;;;4988268;28;19937;-72
2021/08/22 06:03:13;;;;;;;;;;;16.40;96.90;;;;;;5018937;28;20392;-72
2021/08/22 06:05:38;;;;;;;;;;;16.40;96.90;;;;;;5016234;28;19914;-72
2021/08/22 06:08:04;;;;;;;;;;;16.40;97.10;;;;;;5019410;28;19917;-72
2021/08/22 06:10:29;;;;;;;;;;;16.30;97.10;;;;;;5017359;28;19913;-72
2021/08/22 06:12:55;;;;;;;;;;;16.30;96.80;;;;;;5015991;28;19920;-72
2021/08/22 06:15:20;;;;;;;;;;;16.20;96.80;;;;;;5015469;28;19992;-71
2021/08/22 06:17:46;;;;;;;;;;;16.20;96.70;;;;;;5017230;28;19918;-72
2021/08/22 06:20:11;;;;;;;;;;;16.20;97.20;;;;;;5018983;28;20012;-72
2021/08/22 06:22:37;;;;;;;;;;;16.30;97.80;;;;;;5014037;28;19913;-72
2021/08/22 06:25:02;;;;;;;;;;;16.30;97.90;;;;;;5017979;28;19956;-71
2021/08/22 06:27:28;;;;;;;;;;;16.30;97.50;;;;;;5019990;28;20275;-71
2021/08/22 06:29:53;;;;;;;;;;;16.30;97.10;;;;;;5019596;28;20364;-71
2021/08/22 06:32:19;;;;;;;;;;;16.30;97.50;;;;;;5018387;28;19920;-71
2021/08/22 06:34:44;;;;;;;;;;;16.20;97.30;;;;;;5019406;28;19925;-71
2021/08/22 06:37:09;;;;;;;;;;;16.20;97.20;;;;;;5019433;28;19910;-71
2021/08/22 06:39:40;;;;;;;;;;;16.20;97.00;;;;;;5018972;28;19913;-71
2021/08/22 06:42:05;;;;;;;;;;;16.10;97.50;;;;;;5019825;28;20365;-71
2021/08/22 06:44:32;;;;;;;;;;;16.10;97.80;;;;;;5017034;28;19993;-71
2021/08/22 06:46:57;;;;;;;;;;;16.20;97.90;;;;;;5019399;28;19951;-71
2021/08/22 06:49:22;;;;;;;;;;;16.20;97.90;;;;;;5020775;28;19998;-71
2021/08/22 06:51:48;;;;;;;;;;;16.30;97.90;;;;;;5020416;28;19963;-71
2021/08/22 06:54:13;;;;;;;;;;;16.30;98.10;;;;;;5017379;28;19961;-71
2021/08/22 06:56:39;;;;;;;;;;;16.40;98.20;;;;;;5020800;28;19952;-71
2021/08/22 06:59:04;;;;;;;;;;;16.40;98.30;;;;;;4985712;28;20015;-71
2021/08/22 07:01:29;;;;;;;;;;;16.50;98.30;;;;;;5016390;28;20334;-71
2021/08/22 07:03:55;;;;;;;;;;;16.50;98.20;;;;;;5019078;28;20474;-71
2021/08/22 07:06:20;;;;;;;;;;;16.60;98.50;;;;;;4987075;28;19914;-71
2021/08/22 07:08:46;;;;;;;;;;;16.70;98.60;;;;;;5018355;28;20007;-71
2021/08/22 07:11:11;;;;;;;;;;;16.70;98.70;;;;;;5018572;28;19913;-71
2021/08/22 07:13:37;;;;;;;;;;;16.80;98.50;;;;;;5020469;28;20311;-71
2021/08/22 07:16:02;;;;;;;;;;;16.90;98.40;;;;;;5017748;28;20383;-71
2021/08/22 07:18:28;;;;;;;;;;;16.90;98.40;;;;;;5018195;28;19992;-71
2021/08/22 07:20:53;;;;;;;;;;;16.90;98.40;;;;;;5017886;28;19947;-71
2021/08/22 07:23:19;;;;;;;;;;;17.00;98.70;;;;;;5017259;28;19961;-73
2021/08/22 07:25:45;;;;;;;;;;;16.90;98.40;;;;;;5017517;28;20394;-73
2021/08/22 07:28:10;;;;;;;;;;;16.90;98.30;;;;;;5002115;28;19916;-73
2021/08/22 07:30:36;;;;;;;;;;;16.80;98.30;;;;;;5017350;28;19922;-74
2021/08/22 07:33:03;;;;;;;;;;;16.80;98.20;;;;;;5020001;28;20269;-73
2021/08/22 07:35:29;;;;;;;;;;;16.70;98.20;;;;;;5016703;28;19918;-73
2021/08/22 07:37:54;;;;;;;;;;;16.70;98.30;;;;;;5018147;28;19917;-72
2021/08/22 07:40:20;;;;;;;;;;;16.70;98.30;;;;;;5018703;28;19917;-73
2021/08/22 07:42:45;;;;;;;;;;;16.70;98.40;;;;;;5017762;28;19923;-73
2021/08/22 07:45:11;;;;;;;;;;;16.70;98.30;;;;;;4999463;28;19913;-72
2021/08/22 07:47:36;;;;;;;;;;;16.70;98.20;;;;;;5018276;28;19949;-72
2021/08/22 07:50:02;;;;;;;;;;;16.70;98.30;;;;;;5019544;28;19916;-73
2021/08/22 07:52:27;;;;;;;;;;;16.80;98.60;;;;;;5016945;28;19926;-73
2021/08/22 07:54:53;;;;;;;;;;;16.80;98.70;;;;;;4998341;28;19914;-72
2021/08/22 07:57:18;;;;;;;;;;;16.80;98.70;;;;;;5002409;28;20405;-73
2021/08/22 07:59:44;;;;;;;;;;;16.90;98.60;;;;;;5017301;28;19920;-72
2021/08/22 08:02:10;;;;;;;;;;;16.80;98.40;;;;;;5016337;28;19995;-72
2021/08/22 08:04:35;;;;;;;;;;;16.80;98.40;;;;;;5017974;28;19913;-73
2021/08/22 08:07:00;;;;;;;;;;;16.80;98.70;;;;;;5019260;28;19913;-72
2021/08/22 08:09:26;;;;;;;;;;;16.80;98.80;;;;;;5016859;28;20375;-72
2021/08/22 08:11:51;;;;;;;;;;;16.90;98.80;;;;;;5018715;28;19913;-72
2021/08/22 08:14:17;;;;;;;;;;;16.90;98.70;;;;;;4981579;28;19964;-72
2021/08/22 08:16:42;;;;;;;;;;;17.00;98.70;;;;;;5018341;28;20020;-72
2021/08/22 08:19:08;;;;;;;;;;;16.90;98.70;;;;;;5017964;28;19917;-72
2021/08/22 08:21:33;;;;;;;;;;;17.00;98.80;;;;;;5017940;28;20295;-72
2021/08/22 08:23:59;;;;;;;;;;;17.00;98.80;;;;;;5016101;28;19975;-73
2021/08/22 08:26:24;;;;;;;;;;;17.00;98.80;;;;;;5016908;28;19920;-73
2021/08/22 08:28:50;;;;;;;;;;;17.10;98.90;;;;;;5015367;28;19913;-73
2021/08/22 08:31:16;;;;;;;;;;;17.10;98.90;;;;;;5018666;28;19961;-74
2021/08/22 08:33:42;;;;;;;;;;;17.00;98.80;;;;;;5015968;28;20060;-72
2021/08/22 08:36:08;;;;;;;;;;;17.00;99.10;;;;;;5016883;28;20004;-72
2021/08/22 08:38:33;;;;;;;;;;;17.00;99.00;;;;;;5000723;28;19917;-72
2021/08/22 08:41:02;;;;;;;;;;;17.00;99.00;;;;;;4999785;28;19918;-73
2021/08/22 08:43:28;;;;;;;;;;;17.00;99.10;;;;;;5014546;28;19997;-72
2021/08/22 08:45:55;;;;;;;;;;;17.00;99.30;;;;;;5016697;28;20047;-72
2021/08/22 08:48:22;;;;;;;;;;;17.00;99.30;;;;;;5017702;28;19913;-73
2021/08/22 08:50:48;;;;;;;;;;;17.00;99.20;;;;;;5000401;28;19924;-79
2021/08/22 08:53:17;;;;;;;;;;;17.00;99.30;;;;;;5018017;28;19921;-76
2021/08/22 08:55:43;;;;;;;;;;;17.10;99.10;;;;;;5016417;28;19920;-75
2021/08/22 08:58:09;;;;;;;;;;;17.10;99.10;;;;;;5020437;28;20511;-76
2021/08/22 09:00:35;;;;;;;;;;;17.10;99.10;;;;;;5004336;28;19925;-76
2021/08/22 09:03:05;;;;;;;;;;;17.00;99.10;;;;;;5018870;28;19924;-75
2021/08/22 09:05:33;;;;;;;;;;;17.00;99.00;;;;;;5017573;28;19953;-75
2021/08/22 09:08:17;;;;;;;;;;;17.10;99.10;;;;;;4987975;28;19913;-75
2021/08/22 09:11:01;;;;;;;;;;;17.10;99.10;;;;;;5021292;28;19996;-75
2021/08/22 09:13:45;;;;;;;;;;;17.20;99.20;;;;;;5021560;28;19910;-76
2021/08/22 09:16:23;;;;;;;;;;;17.20;99.30;;;;;;5020175;28;19921;-74
2021/08/22 09:19:07;;;;;;;;;;;17.30;99.40;;;;;;5019470;28;20424;-75
2021/08/22 09:21:37;;;;;;;;;;;17.40;99.40;;;;;;5021499;28;20008;-76
2021/08/22 09:24:05;;;;;;;;;;;17.40;99.20;;;;;;5015070;28;20016;-76
2021/08/22 09:26:31;;;;;;;;;;;17.40;99.20;;;;;;5019528;28;20398;-75
2021/08/22 09:29:15;;;;;;;;;;;17.50;99.30;;;;;;5017313;28;20032;-75
2021/08/22 09:31:55;;;;;;;;;;;17.50;99.30;;;;;;5019685;28;19913;-76
2021/08/22 09:34:39;;;;;;;;;;;17.60;99.40;;;;;;5018132;28;20335;-76
2021/08/22 09:37:08;;;;;;;;;;;17.70;99.30;;;;;;5021547;28;19992;-75
2021/08/22 09:39:52;;;;;;;;;;;17.70;99.10;;;;;;4987352;28;19917;-75
2021/08/22 09:42:37;;;;;;;;;;;17.80;99.20;;;;;;5004205;28;20398;-75
2021/08/22 09:45:21;;;;;;;;;;;17.80;99.20;;;;;;5001556;28;19913;-75
2021/08/22 09:47:58;;;;;;;;;;;17.90;99.30;;;;;;5019793;28;20453;-75
2021/08/22 09:50:42;;;;;;;;;;;18.00;99.10;;;;;;5016958;28;19929;-75
2021/08/22 09:53:26;;;;;;;;;;;18.00;99.00;;;;;;5018366;28;19957;-77
2021/08/22 09:56:10;;;;;;;;;;;18.10;98.90;;;;;;5016319;28;20004;-77
2021/08/22 09:58:51;;;;;;;;;;;18.30;98.60;;;;;;5015527;28;20321;-76
2021/08/22 10:01:23;;;;;;;;;;;18.50;98.40;;;;;;5015984;28;19932;-78
2021/08/22 10:03:57;;;;;;;;;;;18.70;98.20;;;;;;5016557;28;20372;-78
2021/08/22 10:06:26;;;;;;;;;;;18.90;98.00;;;;;;5016068;28;20052;-76
2021/08/22 10:08:54;;;;;;;;;;;19.10;97.90;;;;;;4998689;28;19921;-76
2021/08/22 10:11:23;;;;;;;;;;;19.30;97.70;;;;;;5020599;28;19923;-77
2021/08/22 10:13:48;;;;;;;;;;;19.30;97.60;;;;;;5018725;28;20418;-76
2021/08/22 10:16:17;;;;;;;;;;;19.40;97.60;;;;;;5018387;28;20057;-77
2021/08/22 10:18:42;;;;;;;;;;;19.50;97.50;;;;;;4996306;28;20000;-77
2021/08/22 10:21:09;;;;;;;;;;;19.50;97.40;;;;;;5016340;28;19929;-76
2021/08/22 10:23:38;;;;;;;;;;;19.60;97.40;;;;;;5018867;28;19948;-77
2021/08/22 10:26:04;;;;;;;;;;;19.60;97.40;;;;;;5018811;28;19917;-77
2021/08/22 10:28:45;;;;;;;;;;;19.60;97.40;;;;;;5018835;28;19940;-77
2021/08/22 10:31:11;;;;;;;;;;;19.60;97.50;;;;;;5017464;28;20360;-77
2021/08/22 10:33:49;;;;;;;;;;;19.60;97.50;;;;;;5016763;28;20048;-77
2021/08/22 10:36:30;;;;;;;;;;;19.80;97.50;;;;;;5018077;28;20011;-76
2021/08/22 10:39:14;;;;;;;;;;;19.90;97.30;;;;;;5019275;28;19991;-76
2021/08/22 10:41:40;;;;;;;;;;;20.10;97.20;;;;;;5015692;28;19921;-77
2021/08/22 10:44:25;;;;;;;;;;;20.20;96.90;;;;;;4998687;28;19920;-77
2021/08/22 10:46:50;;;;;;;;;;;20.30;96.90;;;;;;5017133;28;20448;-77
2021/08/22 10:49:17;;;;;;;;;;;20.50;96.60;;;;;;5017899;28;20000;-74
2021/08/22 10:52:02;;;;;;;;;;;20.60;96.30;;;;;;5015690;28;20364;-75
2021/08/22 10:54:28;;;;;;;;;;;20.60;96.00;;;;;;5013932;28;19922;-75
2021/08/22 10:56:53;;;;;;;;;;;20.60;96.00;;;;;;5017446;28;20004;-75
2021/08/22 10:59:19;;;;;;;;;;;20.60;95.90;;;;;;5018867;28;19949;-75
2021/08/22 11:01:44;;;;;;;;;;;20.60;95.80;;;;;;5019081;28;20311;-76
2021/08/22 11:04:14;;;;;;;;;;;20.70;95.60;;;;;;5014350;28;19918;-75
2021/08/22 11:06:53;;;;;;;;;;;20.70;95.80;;;;;;5016508;28;19923;-74
2021/08/22 11:09:37;;;;;;;;;;;20.80;95.50;;;;;;5019078;28;19936;-73
2021/08/22 11:12:04;;;;;;;;;;;20.70;95.60;;;;;;5014436;28;19909;-75
2021/08/22 11:14:29;;;;;;;;;;;20.60;95.60;;;;;;4984084;28;19923;-75
2021/08/22 11:16:57;;;;;;;;;;;20.70;95.70;;;;;;5016314;28;19917;-75
2021/08/22 11:19:23;;;;;;;;;;;20.80;95.60;;;;;;4985235;28;19913;-75
2021/08/22 11:21:49;;;;;;;;;;;20.90;95.50;;;;;;5015702;28;19917;-76
2021/08/22 11:24:16;;;;;;;;;;;21.00;95.40;;;;;;5014193;28;20260;-76
2021/08/22 11:26:41;;;;;;;;;;;21.20;95.30;;;;;;5016950;28;19918;-75
2021/08/22 11:29:07;;;;;;;;;;;21.40;95.00;;;;;;5017178;28;20311;-75
2021/08/22 11:31:34;;;;;;;;;;;21.50;94.80;;;;;;5011153;28;20335;-77
2021/08/22 11:34:12;;;;;;;;;;;21.60;94.60;;;;;;5016347;28;19944;-74
2021/08/22 11:36:38;;;;;;;;;;;21.70;94.60;;;;;;4983870;28;20405;-75
2021/08/22 11:39:10;;;;;;;;;;;21.70;94.60;;;;;;5018791;28;20024;-75
2021/08/22 11:41:36;;;;;;;;;;;22.00;94.70;;;;;;5016715;28;20008;-74
2021/08/22 11:44:02;;;;;;;;;;;22.20;94.50;;;;;;5013801;28;20308;-75
2021/08/22 11:46:27;;;;;;;;;;;22.50;94.00;;;;;;5016624;28;19935;-75
2021/08/22 11:48:53;;;;;;;;;;;22.70;93.70;;;;;;5016787;28;19956;-75
2021/08/22 11:53:47;;;;;;;;;;;22.80;92.50;;;;;;5035482;28;21761;-76
2021/08/22 11:56:19;;;;;;;;;;;22.80;92.10;;;;;;5034722;28;19920;-74
2021/08/22 11:58:45;;;;;;;;;;;22.80;91.70;;;;;;5038938;28;20007;-74
2021/08/22 12:01:12;;;;;;;;;;;22.70;91.90;;;;;;5038950;28;19964;-74
2021/08/22 12:03:38;;;;;;;;;;;22.50;91.50;;;;;;5038378;28;19920;-74
2021/08/22 12:06:07;;;;;;;;;;;22.40;91.90;;;;;;5038320;28;19920;-74
2021/08/22 12:08:33;;;;;;;;;;;22.40;91.60;;;;;;5038343;28;19913;-74
2021/08/22 12:11:06;;;;;;;;;;;22.40;91.60;;;;;;5038404;28;19913;-74
2021/08/22 12:13:32;;;;;;;;;;;22.40;91.60;;;;;;5038090;28;19909;-75
2021/08/22 12:15:59;;;;;;;;;;;22.40;91.50;;;;;;5038185;28;19987;-74
2021/08/22 12:18:28;;;;;;;;;;;22.40;91.60;;;;;;5037607;28;19959;-74
2021/08/22 12:21:15;;;;;;;;;;;22.40;92.00;;;;;;5039583;28;20397;-74
2021/08/22 12:23:41;;;;;;;;;;;22.40;92.20;;;;;;5038582;28;19935;-74
2021/08/22 12:26:26;;;;;;;;;;;22.40;91.40;;;;;;5020423;28;19913;-75
2021/08/22 12:28:53;;;;;;;;;;;22.30;91.10;;;;;;5039249;28;19939;-74
2021/08/22 12:31:19;;;;;;;;;;;22.00;90.80;;;;;;5040464;28;19975;-74
2021/08/22 12:33:46;;;;;;;;;;;21.90;91.30;;;;;;5042064;28;20368;-74
2021/08/22 12:36:18;;;;;;;;;;;21.80;91.30;;;;;;5042585;28;19917;-74
2021/08/22 12:38:45;;;;;;;;;;;21.70;91.50;;;;;;5042584;28;19909;-75
2021/08/22 12:41:33;;;;;;;;;;;21.60;91.70;;;;;;5042688;28;19916;-74
2021/08/22 12:44:02;;;;;;;;;;;21.70;91.90;;;;;;5042782;28;19917;-74
2021/08/22 12:46:28;;;;;;;;;;;21.80;91.80;;;;;;5042732;28;19940;-74
2021/08/22 12:48:53;;;;;;;;;;;21.90;91.60;;;;;;5042073;28;19980;-74
2021/08/22 12:51:20;;;;;;;;;;;22.00;91.60;;;;;;5043139;28;19939;-74
2021/08/22 12:53:45;;;;;;;;;;;22.00;91.30;;;;;;5041961;28;19964;-74
2021/08/22 12:56:11;;;;;;;;;;;22.00;91.20;;;;;;5043009;28;19964;-74
2021/08/22 12:58:36;;;;;;;;;;;22.00;91.40;;;;;;5042470;28;19958;-74
2021/08/22 13:01:02;;;;;;;;;;;22.10;91.50;;;;;;5042816;28;19975;-74
2021/08/22 13:03:27;;;;;;;;;;;22.30;91.50;;;;;;5042599;28;19908;-74
2021/08/22 13:05:52;;;;;;;;;;;22.30;90.90;;;;;;5040876;28;19966;-74
2021/08/22 13:08:18;;;;;;;;;;;22.30;91.00;;;;;;5042714;28;19909;-74
2021/08/22 13:10:43;;;;;;;;;;;22.20;90.80;;;;;;5028957;28;19956;-74
2021/08/22 13:13:09;;;;;;;;;;;22.20;90.90;;;;;;5040690;28;19952;-75
2021/08/22 13:15:34;;;;;;;;;;;22.20;91.00;;;;;;5041602;28;19988;-75
2021/08/22 13:17:59;;;;;;;;;;;22.20;90.90;;;;;;5029090;28;19923;-75
2021/08/22 13:20:25;;;;;;;;;;;22.10;90.40;;;;;;5041879;28;20275;-75
2021/08/22 13:22:50;;;;;;;;;;;22.10;90.30;;;;;;5043639;28;20303;-76
2021/08/22 13:25:16;;;;;;;;;;;22.10;90.50;;;;;;5037122;28;20390;-74
2021/08/22 13:27:41;;;;;;;;;;;22.10;90.30;;;;;;5030345;28;20196;-74
2021/08/22 13:30:07;;;;;;;;;;;22.10;90.40;;;;;;5039301;28;19935;-75
2021/08/22 13:32:32;;;;;;;;;;;22.10;90.30;;;;;;5042479;28;19913;-75
2021/08/22 13:34:58;;;;;;;;;;;22.10;90.50;;;;;;5041440;28;19987;-75
2021/08/22 13:37:23;;;;;;;;;;;22.20;90.70;;;;;;5041165;28;19997;-75
2021/08/22 13:39:49;;;;;;;;;;;22.20;90.60;;;;;;5028865;28;19999;-75
2021/08/22 13:42:14;;;;;;;;;;;22.20;90.60;;;;;;5040184;28;20011;-74
2021/08/22 13:44:40;;;;;;;;;;;22.10;90.20;;;;;;5041158;28;19960;-75
2021/08/22 13:47:07;;;;;;;;;;;21.90;90.20;;;;;;5043729;28;19917;-74
2021/08/22 13:49:33;;;;;;;;;;;21.70;91.00;;;;;;5042290;28;19913;-74
2021/08/22 13:51:58;;;;;;;;;;;21.50;91.70;;;;;;5041429;28;20010;-73
2021/08/22 13:54:24;;;;;;;;;;;21.30;92.50;;;;;;5040382;28;20326;-73
2021/08/22 13:56:49;;;;;;;;;;;21.10;93.90;;;;;;5039489;28;19916;-74
2021/08/22 13:59:15;;;;;;;;;;;20.90;93.90;;;;;;5041195;28;19920;-73
2021/08/22 14:01:40;;;;;;;;;;;20.80;94.90;;;;;;5041435;28;19921;-74
2021/08/22 14:04:06;;;;;;;;;;;20.60;95.20;;;;;;5043503;28;20311;-74
2021/08/22 14:06:31;;;;;;;;;;;20.40;95.30;;;;;;5028842;28;19912;-74
2021/08/22 14:08:57;;;;;;;;;;;20.20;95.40;;;;;;5040364;28;19920;-74
2021/08/22 14:11:22;;;;;;;;;;;20.10;95.20;;;;;;5039981;28;19913;-74
2021/08/22 14:13:49;;;;;;;;;;;20.00;95.60;;;;;;5039813;28;20390;-74
2021/08/22 14:16:14;;;;;;;;;;;20.00;95.90;;;;;;5041814;28;19913;-73
2021/08/22 14:18:40;;;;;;;;;;;19.90;96.40;;;;;;5040584;28;19927;-74
2021/08/22 14:21:06;;;;;;;;;;;19.90;96.60;;;;;;5039344;28;19920;-73